createdAt,value
2019-03-22T00:01:33.144Z,11.10
2019-03-22T00:03:34.285Z,10.90
2019-03-22T00:05:35.135Z,12.00
2019-03-22T00:07:35.969Z,12.43
2019-03-22T00:09:36.817Z,11.93
2019-03-22T00:11:37.652Z,12.23
2019-03-22T00:13:38.640Z,12.03
2019-03-22T00:15:39.504Z,11.07
2019-03-22T00:17:40.346Z,11.30
2019-03-22T00:19:41.268Z,10.97
2019-03-22T00:21:42.136Z,10.60
2019-03-22T00:23:42.977Z,11.13
2019-03-22T00:25:44.152Z,10.10
2019-03-22T00:27:45.392Z,10.53
2019-03-22T00:29:46.246Z,10.60
2019-03-22T00:31:47.076Z,11.77
2019-03-22T00:33:47.916Z,11.50
2019-03-22T00:35:48.776Z,11.13
2019-03-22T00:37:49.635Z,11.20
2019-03-22T00:39:50.473Z,10.90
2019-03-22T00:41:51.338Z,10.23
2019-03-22T00:43:52.213Z,10.07
2019-03-22T00:45:53.060Z,11.70
2019-03-22T00:47:54.224Z,10.80
2019-03-22T00:49:55.325Z,11.17
2019-03-22T00:51:56.176Z,11.07
2019-03-22T00:53:57.012Z,11.93
2019-03-22T00:55:57.860Z,11.30
2019-03-22T00:57:58.688Z,12.03
2019-03-22T00:59:59.550Z,11.60
2019-03-22T01:02:00.378Z,11.97
2019-03-22T01:04:01.530Z,12.00
2019-03-22T01:06:02.367Z,11.43
2019-03-22T01:08:03.212Z,12.40
2019-03-22T01:10:04.052Z,11.63
2019-03-22T01:12:05.167Z,12.40
2019-03-22T01:14:06.125Z,12.27
2019-03-22T01:16:06.951Z,12.27
2019-03-22T01:18:07.777Z,11.83
2019-03-22T01:20:08.629Z,11.60
2019-03-22T01:22:09.584Z,12.07
2019-03-22T01:24:10.412Z,11.90
2019-03-22T01:26:11.246Z,11.50
2019-03-22T01:28:12.096Z,11.27
2019-03-22T01:30:12.938Z,11.50
2019-03-22T01:32:14.080Z,10.00
2019-03-22T01:34:14.937Z,11.03
2019-03-22T01:36:15.784Z,11.50
2019-03-22T01:38:16.650Z,11.23
2019-03-22T01:40:17.503Z,10.63
2019-03-22T01:42:18.356Z,10.17
2019-03-22T01:44:19.192Z,10.57
2019-03-22T01:46:20.017Z,10.37
2019-03-22T01:48:20.973Z,10.37
2019-03-22T01:50:21.808Z,10.67
2019-03-22T01:52:22.643Z,10.37
2019-03-22T01:54:23.496Z,10.77
2019-03-22T01:56:24.384Z,10.60
2019-03-22T01:58:25.560Z,10.90
2019-03-22T02:00:26.509Z,9.53
2019-03-22T02:02:27.622Z,10.77
2019-03-22T02:04:28.480Z,10.80
2019-03-22T02:06:29.585Z,10.20
2019-03-22T02:08:30.435Z,11.27
2019-03-22T02:10:31.289Z,10.43
2019-03-22T02:12:32.123Z,12.00
2019-03-22T02:14:32.983Z,12.47
2019-03-22T02:16:34.172Z,11.67
2019-03-22T02:18:34.988Z,11.13
2019-03-22T02:20:35.837Z,12.37
2019-03-22T02:22:36.696Z,12.07
2019-03-22T02:24:37.572Z,11.80
2019-03-22T02:26:38.668Z,11.00
2019-03-22T02:28:39.910Z,11.90
2019-03-22T02:30:40.733Z,12.37
2019-03-22T02:32:41.741Z,11.40
2019-03-22T02:34:42.583Z,12.57
2019-03-22T02:36:43.416Z,12.30
2019-03-22T02:38:44.575Z,11.73
2019-03-22T02:40:45.428Z,11.93
2019-03-22T02:42:46.269Z,11.93
2019-03-22T02:44:47.099Z,11.77
2019-03-22T02:46:47.942Z,11.67
2019-03-22T02:48:48.784Z,11.17
2019-03-22T02:50:49.621Z,11.93
2019-03-22T02:52:50.475Z,10.50
2019-03-22T02:54:51.325Z,10.07
2019-03-22T02:56:52.148Z,10.57
2019-03-22T02:58:53.012Z,9.87
2019-03-22T03:00:53.953Z,9.20
2019-03-22T03:02:54.797Z,9.13
2019-03-22T03:04:55.645Z,10.00
2019-03-22T03:06:56.627Z,9.90
2019-03-22T03:08:57.480Z,9.87
2019-03-22T03:10:58.345Z,10.40
2019-03-22T03:12:59.185Z,10.17
2019-03-22T03:15:00.468Z,10.37
2019-03-22T03:17:01.415Z,11.67
2019-03-22T03:19:02.541Z,11.83
2019-03-22T03:21:03.456Z,11.87
2019-03-22T03:23:04.442Z,10.43
2019-03-22T03:25:05.285Z,10.60
2019-03-22T03:27:06.112Z,11.27
2019-03-22T03:29:06.964Z,10.30
2019-03-22T03:31:07.820Z,11.30
2019-03-22T03:33:09.123Z,11.67
2019-03-22T03:35:10.082Z,11.53
2019-03-22T03:37:10.918Z,11.47
2019-03-22T03:39:11.745Z,11.53
2019-03-22T03:41:12.593Z,12.03
2019-03-22T03:43:13.436Z,12.57
2019-03-22T03:45:14.294Z,11.77
2019-03-22T03:47:15.128Z,11.23
2019-03-22T03:49:16.289Z,11.57
2019-03-22T03:51:17.123Z,10.97
2019-03-22T03:53:18.197Z,11.33
2019-03-22T03:55:19.044Z,11.50
2019-03-22T03:57:19.889Z,11.07
2019-03-22T03:59:20.743Z,11.10
2019-03-22T04:01:21.569Z,11.90
2019-03-22T04:03:22.421Z,11.43
2019-03-22T04:05:23.283Z,11.83
2019-03-22T04:07:24.141Z,11.93
2019-03-22T04:09:25.322Z,11.80
2019-03-22T04:11:26.175Z,12.83
2019-03-22T04:13:27.001Z,12.33
2019-03-22T04:15:27.970Z,12.63
2019-03-22T04:17:28.794Z,11.97
2019-03-22T04:19:29.637Z,11.57
2019-03-22T04:21:30.519Z,11.90
2019-03-22T04:23:31.364Z,12.00
2019-03-22T04:25:32.211Z,11.97
2019-03-22T04:27:33.044Z,12.23
2019-03-22T04:29:33.880Z,12.47
2019-03-22T04:31:34.734Z,12.33
2019-03-22T04:33:35.560Z,12.50
2019-03-22T04:35:36.693Z,13.13
2019-03-22T04:37:37.528Z,12.63
2019-03-22T04:39:38.349Z,12.47
2019-03-22T04:41:39.214Z,11.80
2019-03-22T04:43:40.054Z,11.80
2019-03-22T04:45:40.899Z,11.60
2019-03-22T04:47:41.764Z,12.30
2019-03-22T04:49:42.606Z,12.60
2019-03-22T04:51:43.453Z,12.60
2019-03-22T04:53:44.292Z,12.00
2019-03-22T04:55:45.149Z,11.97
2019-03-22T04:57:45.989Z,12.10
2019-03-22T04:59:46.842Z,11.97
2019-03-22T05:01:47.701Z,11.03
2019-03-22T05:03:48.548Z,11.50
2019-03-22T05:05:49.687Z,11.77
2019-03-22T05:07:50.525Z,12.27
2019-03-22T05:09:51.367Z,11.73
2019-03-22T05:11:52.190Z,11.33
2019-03-22T05:13:53.036Z,11.90
2019-03-22T05:15:53.896Z,11.57
2019-03-22T05:17:54.757Z,11.80
2019-03-22T05:19:55.594Z,12.33
2019-03-22T05:21:56.436Z,12.00
2019-03-22T05:23:57.307Z,11.97
2019-03-22T05:25:58.155Z,11.93
2019-03-22T05:27:58.990Z,12.17
2019-03-22T05:29:59.858Z,12.73
2019-03-22T05:32:00.797Z,13.13
2019-03-22T05:34:01.960Z,13.07
2019-03-22T05:36:02.796Z,13.00
2019-03-22T05:38:03.620Z,12.83
2019-03-22T05:40:04.480Z,13.80
2019-03-22T05:42:05.309Z,13.07
2019-03-22T05:44:06.177Z,13.53
2019-03-22T05:46:07.008Z,13.47
2019-03-22T05:48:08.180Z,13.10
2019-03-22T05:50:09.028Z,13.00
2019-03-22T05:52:09.895Z,13.63
2019-03-22T05:54:10.772Z,13.17
2019-03-22T05:56:11.616Z,13.77
2019-03-22T05:58:12.470Z,13.23
2019-03-22T06:00:15.473Z,13.43
2019-03-22T06:02:16.326Z,13.83
2019-03-22T06:04:17.172Z,12.90
2019-03-22T06:06:18.029Z,14.10
2019-03-22T06:08:18.869Z,13.73
2019-03-22T06:10:19.752Z,13.73
2019-03-22T06:12:20.589Z,13.60
2019-03-22T06:14:21.460Z,14.10
2019-03-22T06:16:22.285Z,13.40
2019-03-22T06:18:23.126Z,13.33
2019-03-22T06:20:23.965Z,13.97
2019-03-22T06:22:24.840Z,13.50
2019-03-22T06:24:25.693Z,13.30
2019-03-22T06:26:26.952Z,12.20
2019-03-22T06:28:28.009Z,13.00
2019-03-22T06:30:28.870Z,13.00
2019-03-22T06:32:29.715Z,13.00
2019-03-22T06:34:30.844Z,12.97
2019-03-22T06:36:31.720Z,12.53
2019-03-22T06:38:32.617Z,11.73
2019-03-22T06:40:33.480Z,12.40
2019-03-22T06:42:34.576Z,12.07
2019-03-22T06:44:35.756Z,12.50
2019-03-22T06:46:36.609Z,12.37
2019-03-22T06:48:37.461Z,12.60
2019-03-22T06:50:38.305Z,12.67
2019-03-22T06:52:39.149Z,12.30
2019-03-22T06:54:39.990Z,13.10
2019-03-22T06:56:41.135Z,13.10
2019-03-22T06:58:41.968Z,13.80
2019-03-22T07:00:42.832Z,14.00
2019-03-22T07:02:43.663Z,14.87
2019-03-22T07:04:44.514Z,13.13
2019-03-22T07:06:45.372Z,14.27
2019-03-22T07:08:46.204Z,14.33
2019-03-22T07:10:47.044Z,13.70
2019-03-22T07:12:48.238Z,13.80
2019-03-22T07:14:49.068Z,14.20
2019-03-22T07:16:49.901Z,13.80
2019-03-22T07:18:50.750Z,14.33
2019-03-22T07:20:51.586Z,13.63
2019-03-22T07:22:52.417Z,14.20
2019-03-22T07:24:53.279Z,14.60
2019-03-22T07:26:54.392Z,14.13
2019-03-22T07:28:55.262Z,14.60
2019-03-22T07:30:56.104Z,14.33
2019-03-22T07:32:56.928Z,15.83
2019-03-22T07:34:57.783Z,15.27
2019-03-22T07:36:58.617Z,15.60
2019-03-22T07:38:59.482Z,15.97
2019-03-22T07:41:00.572Z,17.50
2019-03-22T07:43:01.433Z,17.53
2019-03-22T07:45:02.316Z,16.67
2019-03-22T07:47:03.177Z,15.93
2019-03-22T07:49:04.016Z,15.00
2019-03-22T07:51:04.868Z,16.87
2019-03-22T07:53:05.720Z,14.93
2019-03-22T07:55:06.592Z,14.83
2019-03-22T07:57:07.438Z,15.70
2019-03-22T07:59:09.819Z,14.97
2019-03-22T08:01:11.030Z,15.90
2019-03-22T08:03:11.875Z,15.90
2019-03-22T08:05:12.709Z,14.97
2019-03-22T08:07:13.560Z,15.50
2019-03-22T08:09:14.465Z,16.37
2019-03-22T08:11:15.341Z,15.30
2019-03-22T08:13:16.193Z,16.13
2019-03-22T08:15:17.038Z,15.37
2019-03-22T08:17:17.880Z,15.30
2019-03-22T08:19:18.708Z,15.33
2019-03-22T08:21:19.591Z,14.67
2019-03-22T08:23:20.567Z,13.33
2019-03-22T08:25:21.478Z,13.93
2019-03-22T08:27:22.351Z,14.40
2019-03-22T08:29:23.227Z,13.87
2019-03-22T08:31:24.033Z,13.20
2019-03-22T08:33:24.874Z,13.07
2019-03-22T08:35:25.717Z,13.57
2019-03-22T08:37:26.897Z,12.97
2019-03-22T08:39:27.753Z,12.43
2019-03-22T08:41:28.595Z,12.50
2019-03-22T08:43:29.442Z,13.40
2019-03-22T08:45:30.316Z,12.87
2019-03-22T08:47:34.274Z,12.40
2019-03-22T08:49:34.183Z,12.00
2019-03-22T08:51:35.203Z,12.20
2019-03-22T08:53:36.064Z,11.83
2019-03-22T08:55:36.954Z,12.03
2019-03-22T08:57:37.818Z,11.90
2019-03-22T08:59:38.659Z,11.60
2019-03-22T09:01:39.513Z,11.43
2019-03-22T09:03:40.397Z,10.50
2019-03-22T09:05:41.318Z,12.10
2019-03-22T09:07:42.164Z,12.23
2019-03-22T09:09:43.106Z,11.50
2019-03-22T09:11:44.237Z,12.33
2019-03-22T09:13:45.049Z,11.43
2019-03-22T09:15:45.934Z,11.37
2019-03-22T09:17:47.089Z,10.40
2019-03-22T09:19:49.965Z,11.23
2019-03-22T09:21:50.990Z,10.07
2019-03-22T09:23:51.922Z,10.90
2019-03-22T09:25:52.871Z,11.23
2019-03-22T09:27:53.781Z,10.87
2019-03-22T09:29:54.676Z,10.77
2019-03-22T09:31:55.519Z,9.80
2019-03-22T09:33:56.445Z,9.93
2019-03-22T09:35:57.685Z,10.40
2019-03-22T09:37:58.563Z,10.20
2019-03-22T09:39:59.888Z,9.80
2019-03-22T09:42:00.722Z,9.50
2019-03-22T09:44:01.663Z,9.80
2019-03-22T09:46:02.679Z,8.40
2019-03-22T09:48:06.077Z,8.20
2019-03-22T09:50:06.349Z,7.63
2019-03-22T09:52:07.288Z,7.50
2019-03-22T09:54:08.162Z,7.50
2019-03-22T09:56:09.072Z,7.83
2019-03-22T09:58:10.012Z,8.03
2019-03-22T10:00:10.989Z,8.20
2019-03-22T10:02:11.850Z,8.23
2019-03-22T10:04:12.707Z,7.97
2019-03-22T10:06:13.540Z,7.97
2019-03-22T10:08:14.439Z,7.33
2019-03-22T10:10:15.403Z,7.10
2019-03-22T10:12:16.400Z,7.30
2019-03-22T10:14:17.658Z,7.30
2019-03-22T10:16:18.647Z,6.60
2019-03-22T10:18:19.637Z,6.70
2019-03-22T10:20:20.450Z,6.77
2019-03-22T10:22:21.405Z,6.50
2019-03-22T10:24:22.284Z,6.83
2019-03-22T10:26:23.202Z,6.13
2019-03-22T10:28:24.147Z,6.33
2019-03-22T10:30:25.071Z,6.10
2019-03-22T10:32:26.037Z,7.00
2019-03-22T10:34:26.923Z,6.87
2019-03-22T10:36:28.113Z,3.57
2019-03-22T10:38:31.908Z,3.70
2019-03-22T10:40:31.747Z,5.30
2019-03-22T10:42:32.683Z,5.40
2019-03-22T10:44:33.509Z,5.87
2019-03-22T10:46:34.354Z,5.27
2019-03-22T10:48:35.212Z,5.80
2019-03-22T10:50:36.049Z,5.73
2019-03-22T10:52:36.885Z,6.43
2019-03-22T10:54:37.737Z,6.80
2019-03-22T10:56:38.576Z,5.23
2019-03-22T10:58:39.420Z,6.07
2019-03-22T11:00:40.278Z,6.20
2019-03-22T11:02:41.130Z,5.77
2019-03-22T11:04:41.978Z,5.97
2019-03-22T11:06:42.824Z,7.00
2019-03-22T11:08:43.662Z,6.33
2019-03-22T11:10:44.840Z,7.23
2019-03-22T11:12:45.682Z,7.45
2019-03-22T11:14:46.524Z,7.05
2019-03-22T11:16:47.756Z,6.87
2019-03-22T11:18:48.592Z,6.50
2019-03-22T11:20:49.446Z,6.53
2019-03-22T11:22:50.572Z,7.37
2019-03-22T11:24:51.401Z,6.83
2019-03-22T11:26:52.246Z,7.10
2019-03-22T11:28:53.077Z,6.90
2019-03-22T11:30:53.930Z,6.93
2019-03-22T11:32:54.838Z,7.08
2019-03-22T11:34:55.716Z,6.77
2019-03-22T11:36:56.555Z,6.97
2019-03-22T11:38:57.437Z,6.90
2019-03-22T11:40:58.272Z,7.50
2019-03-22T11:43:08.179Z,7.57
2019-03-22T11:45:02.497Z,7.07
2019-03-22T11:47:03.612Z,7.03
2019-03-22T11:49:04.452Z,7.00
2019-03-22T11:51:05.400Z,7.50
2019-03-22T11:53:06.234Z,7.05
2019-03-22T11:55:07.082Z,7.50
2019-03-22T11:57:07.921Z,7.13
2019-03-22T11:59:08.768Z,7.70
2019-03-22T12:01:19.151Z,7.40
2019-03-22T12:03:12.741Z,7.30
2019-03-22T12:05:13.629Z,6.25
2019-03-22T12:07:15.034Z,6.83
2019-03-22T12:09:16.009Z,7.07
2019-03-22T12:11:16.864Z,6.73
2019-03-22T12:13:17.700Z,6.53
2019-03-22T12:15:18.549Z,6.62
2019-03-22T12:17:19.397Z,6.95
2019-03-22T12:19:20.237Z,6.40
2019-03-22T12:21:21.091Z,6.80
2019-03-22T12:23:21.936Z,7.10
2019-03-22T12:25:22.756Z,6.50
2019-03-22T12:27:23.620Z,6.43
2019-03-22T12:29:24.453Z,5.85
2019-03-22T12:31:25.293Z,6.17
2019-03-22T12:33:26.128Z,6.12
2019-03-22T12:35:26.973Z,5.50
2019-03-22T12:37:27.940Z,6.13
2019-03-22T12:39:28.821Z,5.93
2019-03-22T12:41:29.668Z,5.60
2019-03-22T12:43:30.572Z,5.93
2019-03-22T12:45:31.417Z,6.20
2019-03-22T12:47:32.260Z,5.87
2019-03-22T12:49:33.169Z,6.00
2019-03-22T12:51:34.028Z,6.00
2019-03-22T12:53:35.067Z,5.83
2019-03-22T12:55:36.156Z,5.97
2019-03-22T12:57:37.013Z,5.80
2019-03-22T12:59:37.873Z,6.37
2019-03-22T13:01:38.736Z,5.43
2019-03-22T13:03:39.584Z,5.37
2019-03-22T13:05:40.449Z,5.17
2019-03-22T13:07:41.374Z,5.70
2019-03-22T13:09:42.477Z,5.00
2019-03-22T13:11:43.384Z,5.10
2019-03-22T13:13:44.242Z,5.40
2019-03-22T13:15:45.094Z,5.60
2019-03-22T13:17:45.924Z,5.83
2019-03-22T13:19:46.768Z,4.83
2019-03-22T13:21:47.909Z,5.90
2019-03-22T13:23:48.752Z,5.43
2019-03-22T13:25:49.604Z,5.70
2019-03-22T13:27:50.452Z,6.83
2019-03-22T13:29:51.288Z,6.53
2019-03-22T13:31:52.158Z,6.33
2019-03-22T13:33:53.031Z,3.83
2019-03-22T13:35:54.183Z,4.22
2019-03-22T13:37:55.024Z,4.80
2019-03-22T13:39:55.897Z,4.93
2019-03-22T13:41:56.741Z,6.37
2019-03-22T13:43:57.636Z,5.63
2019-03-22T13:45:58.513Z,6.50
2019-03-22T13:47:59.418Z,6.27
2019-03-22T13:50:00.376Z,5.43
2019-03-22T13:52:01.273Z,5.20
2019-03-22T13:54:02.101Z,5.43
2019-03-22T13:56:03.300Z,5.80
2019-03-22T13:58:04.162Z,6.20
2019-03-22T14:00:04.994Z,6.40
2019-03-22T14:02:06.147Z,6.93
2019-03-22T14:04:07.017Z,6.60
2019-03-22T14:06:07.832Z,6.40
2019-03-22T14:08:08.680Z,6.70
2019-03-22T14:10:09.528Z,7.03
2019-03-22T14:12:10.381Z,4.90
2019-03-22T14:14:11.492Z,6.37
2019-03-22T14:16:12.353Z,6.90
2019-03-22T14:18:13.199Z,6.53
2019-03-22T14:20:14.064Z,7.87
2019-03-22T14:22:14.938Z,7.13
2019-03-22T14:24:15.771Z,7.70
2019-03-22T14:26:16.928Z,9.37
2019-03-22T14:28:17.786Z,8.40
2019-03-22T14:30:18.894Z,4.30
2019-03-22T14:32:19.733Z,7.37
2019-03-22T14:34:20.561Z,8.10
2019-03-22T14:36:21.470Z,8.47
2019-03-22T14:38:22.301Z,7.93
2019-03-22T14:40:23.367Z,7.80
2019-03-22T14:42:24.220Z,9.13
2019-03-22T14:44:27.329Z,9.70
2019-03-22T14:46:27.944Z,9.27
2019-03-22T14:48:28.900Z,9.40
2019-03-22T14:50:29.846Z,9.23
2019-03-22T14:52:30.785Z,9.07
2019-03-22T14:54:31.653Z,9.90
2019-03-22T14:56:32.843Z,9.10
2019-03-22T14:58:33.777Z,9.00
2019-03-22T15:00:34.642Z,9.27
2019-03-22T15:02:35.802Z,8.93
2019-03-22T15:04:36.683Z,9.53
2019-03-22T15:06:37.508Z,9.20
2019-03-22T15:08:38.392Z,9.43
2019-03-22T15:10:39.257Z,9.00
2019-03-22T15:12:40.377Z,9.27
2019-03-22T15:14:51.625Z,9.27
2019-03-22T15:17:12.083Z,9.03
2019-03-22T15:19:31.486Z,9.13
2019-03-22T15:21:59.964Z,8.03
2019-03-22T15:24:22.291Z,8.80
2019-03-22T15:26:34.604Z,8.97
2019-03-22T15:29:01.210Z,8.57
2019-03-22T15:31:25.063Z,9.73
2019-03-22T15:33:44.337Z,8.60
2019-03-22T15:38:31.354Z,9.13
2019-03-22T15:40:32.396Z,9.47
2019-03-22T15:42:33.252Z,9.63
2019-03-22T15:44:34.086Z,10.23
2019-03-22T15:46:35.178Z,9.70
2019-03-22T15:48:36.044Z,9.70
2019-03-22T15:50:36.865Z,9.43
2019-03-22T15:52:37.721Z,9.33
2019-03-22T15:54:38.829Z,9.80
2019-03-22T15:56:39.960Z,9.70
2019-03-22T15:58:40.836Z,10.33
2019-03-22T16:00:41.679Z,9.53
2019-03-22T16:02:42.517Z,9.93
2019-03-22T16:04:43.408Z,9.40
2019-03-22T16:06:44.266Z,9.90
2019-03-22T16:08:45.089Z,9.70
2019-03-22T16:10:46.051Z,10.43
2019-03-22T16:12:46.909Z,10.30
2019-03-22T16:14:48.062Z,10.37
2019-03-22T16:16:48.925Z,10.73
2019-03-22T16:18:50.065Z,10.37
2019-03-22T16:20:59.653Z,10.33
2019-03-22T16:22:53.651Z,10.70
2019-03-22T16:24:54.522Z,9.87
2019-03-22T16:26:55.361Z,10.43
2019-03-22T16:28:56.193Z,10.90
2019-03-22T16:30:57.043Z,10.83
2019-03-22T16:32:57.876Z,11.10
2019-03-22T16:34:58.721Z,10.83
2019-03-22T16:36:59.586Z,10.90
2019-03-22T16:39:00.433Z,11.40
2019-03-22T16:41:01.262Z,11.17
2019-03-22T16:43:02.099Z,11.00
2019-03-22T16:45:02.941Z,10.63
2019-03-22T16:47:03.809Z,10.33
2019-03-22T16:49:04.641Z,11.67
2019-03-22T16:51:05.477Z,11.20
2019-03-22T16:53:06.332Z,11.47
2019-03-22T16:55:07.173Z,11.37
2019-03-22T16:57:08.013Z,11.23
2019-03-22T16:59:08.865Z,10.87
2019-03-22T17:01:09.797Z,11.13
2019-03-22T17:03:10.620Z,11.10
2019-03-22T17:05:11.475Z,11.53
2019-03-22T17:07:12.324Z,9.93
2019-03-22T17:09:13.168Z,11.07
2019-03-22T17:11:14.020Z,9.23
2019-03-22T17:13:14.928Z,10.67
2019-03-22T17:15:15.829Z,10.47
2019-03-22T17:17:16.684Z,11.00
2019-03-22T17:19:17.547Z,11.70
2019-03-22T17:21:18.383Z,11.20
2019-03-22T17:23:19.248Z,10.57
2019-03-22T17:25:20.089Z,12.40
2019-03-22T17:27:20.944Z,13.47
2019-03-22T17:29:21.797Z,11.13
2019-03-22T17:31:22.738Z,10.97
2019-03-22T17:33:23.581Z,10.80
2019-03-22T17:35:24.451Z,11.10
2019-03-22T17:37:25.624Z,10.80
2019-03-22T17:39:26.500Z,10.97
2019-03-22T17:41:27.323Z,10.70
2019-03-22T17:43:28.184Z,10.43
2019-03-22T17:45:29.037Z,11.07
2019-03-22T17:47:30.142Z,11.93
2019-03-22T17:49:31.395Z,11.53
2019-03-22T17:51:32.548Z,11.77
2019-03-22T17:53:33.418Z,10.07
2019-03-22T17:55:34.284Z,9.67
2019-03-22T17:57:35.130Z,9.90
2019-03-22T17:59:35.972Z,9.53
2019-03-22T18:01:36.924Z,10.00
2019-03-22T18:03:37.764Z,9.97
2019-03-22T18:05:38.630Z,11.30
2019-03-22T18:07:39.496Z,12.90
2019-03-22T18:09:40.341Z,12.83
2019-03-22T18:11:41.195Z,12.37
2019-03-22T18:13:42.377Z,12.57
2019-03-22T18:15:43.221Z,12.43
2019-03-22T18:17:44.081Z,12.30
2019-03-22T18:19:45.230Z,12.50
2019-03-22T18:21:46.077Z,12.43
2019-03-22T18:23:47.244Z,13.17
2019-03-22T18:25:48.384Z,12.93
2019-03-22T18:27:49.263Z,12.30
2019-03-22T18:29:50.159Z,12.60
2019-03-22T18:31:51.925Z,12.60
2019-03-22T18:33:52.868Z,12.53
2019-03-22T18:35:53.699Z,12.40
2019-03-22T18:37:54.526Z,11.47
2019-03-22T18:39:55.401Z,12.03
2019-03-22T18:41:56.276Z,13.83
2019-03-22T18:43:57.167Z,13.33
2019-03-22T18:45:58.665Z,13.83
2019-03-22T18:47:59.648Z,14.43
2019-03-22T18:50:00.665Z,15.23
2019-03-22T18:52:01.549Z,14.70
2019-03-22T18:54:02.420Z,14.93
2019-03-22T18:56:03.837Z,14.50
2019-03-22T18:58:04.667Z,14.57
2019-03-22T19:00:05.549Z,14.60
2019-03-22T19:02:06.416Z,14.17
2019-03-22T19:04:07.268Z,14.83
2019-03-22T19:06:08.099Z,14.50
2019-03-22T19:08:08.948Z,14.00
2019-03-22T19:10:09.784Z,15.23
2019-03-22T19:12:10.627Z,14.40
2019-03-22T19:14:11.497Z,14.80
2019-03-22T19:16:12.774Z,14.33
2019-03-22T19:18:13.620Z,13.77
2019-03-22T19:20:14.463Z,15.07
2019-03-22T19:22:15.301Z,15.17
2019-03-22T19:24:16.156Z,14.57
2019-03-22T19:26:16.997Z,15.63
2019-03-22T19:28:17.844Z,15.13
2019-03-22T19:30:18.693Z,15.60
2019-03-22T19:32:19.533Z,14.63
2019-03-22T19:34:20.396Z,14.83
2019-03-22T19:36:21.227Z,14.40
2019-03-22T19:38:22.341Z,14.33
2019-03-22T19:40:23.196Z,15.83
2019-03-22T19:42:24.024Z,15.20
2019-03-22T19:44:24.868Z,14.57
2019-03-22T19:46:25.705Z,14.97
2019-03-22T19:48:26.558Z,16.00
2019-03-22T19:50:27.424Z,16.10
2019-03-22T19:52:28.264Z,15.10
2019-03-22T19:54:29.156Z,15.73
2019-03-22T19:56:30.025Z,16.37
2019-03-22T19:58:30.861Z,15.30
2019-03-22T20:00:31.701Z,15.53
2019-03-22T20:02:32.565Z,15.80
2019-03-22T20:04:33.408Z,16.17
2019-03-22T20:06:34.256Z,17.63
2019-03-22T20:08:35.099Z,16.83
2019-03-22T20:10:35.930Z,16.43
2019-03-22T20:12:37.236Z,16.10
2019-03-22T20:14:38.094Z,16.30
2019-03-22T20:16:38.979Z,17.30
2019-03-22T20:18:39.816Z,17.03
2019-03-22T20:20:40.664Z,17.30
2019-03-22T20:22:41.522Z,16.80
2019-03-22T20:24:42.372Z,16.40
2019-03-22T20:26:43.206Z,16.60
2019-03-22T20:28:44.048Z,17.20
2019-03-22T20:30:44.889Z,16.77
2019-03-22T20:32:45.724Z,16.23
2019-03-22T20:34:47.013Z,16.20
2019-03-22T20:36:47.885Z,16.00
2019-03-22T20:38:48.700Z,16.63
2019-03-22T20:40:49.736Z,16.37
2019-03-22T20:42:50.611Z,16.37
2019-03-22T20:44:51.782Z,16.83
2019-03-22T20:46:52.630Z,16.63
2019-03-22T20:48:53.776Z,16.80
2019-03-22T20:50:54.620Z,16.57
2019-03-22T20:52:55.468Z,16.70
2019-03-22T20:54:56.307Z,16.53
2019-03-22T20:56:57.166Z,15.88
2019-03-22T20:58:58.028Z,18.30
2019-03-22T21:00:59.204Z,17.23
2019-03-22T21:03:00.256Z,17.40
2019-03-22T21:05:01.104Z,17.67
2019-03-22T21:07:01.977Z,17.43
2019-03-22T21:09:03.951Z,19.27
2019-03-22T21:11:04.812Z,17.90
2019-03-22T21:13:06.029Z,17.67
2019-03-22T21:15:06.872Z,18.00
2019-03-22T21:17:08.017Z,18.03
2019-03-22T21:19:08.862Z,17.90
2019-03-22T21:21:09.686Z,19.10
2019-03-22T21:23:10.573Z,19.73
2019-03-22T21:25:11.489Z,19.27
2019-03-22T21:27:15.851Z,19.17
2019-03-22T21:29:15.295Z,18.77
2019-03-22T21:31:16.224Z,18.57
2019-03-22T21:33:17.128Z,18.87
2019-03-22T21:35:22.903Z,18.67
2019-03-22T21:37:21.154Z,20.47
2019-03-22T21:39:21.996Z,19.70
2019-03-22T21:41:22.820Z,17.43
2019-03-22T21:43:23.780Z,18.67
2019-03-22T21:45:24.722Z,18.30
2019-03-22T21:47:25.576Z,18.03
2019-03-22T21:49:26.429Z,17.40
2019-03-22T21:51:27.276Z,17.50
2019-03-22T21:53:28.115Z,18.23
2019-03-22T21:55:28.943Z,17.70
2019-03-22T21:57:29.823Z,18.80
2019-03-22T21:59:30.689Z,18.60
2019-03-22T22:01:31.813Z,18.33
2019-03-22T22:03:32.800Z,17.83
2019-03-22T22:05:33.765Z,16.20
2019-03-22T22:07:34.600Z,16.97
2019-03-22T22:09:35.432Z,16.93
2019-03-22T22:11:36.297Z,17.57
2019-03-22T22:13:37.133Z,17.03
2019-03-22T22:15:37.981Z,19.00
2019-03-22T22:17:39.340Z,17.57
2019-03-22T22:19:40.277Z,18.70
2019-03-22T22:21:41.125Z,18.63
2019-03-22T22:23:41.972Z,16.83
2019-03-22T22:25:42.816Z,17.53
2019-03-22T22:27:43.658Z,17.07
2019-03-22T22:29:44.507Z,17.40
2019-03-22T22:31:45.368Z,18.00
2019-03-22T22:33:46.226Z,17.67
2019-03-22T22:35:47.077Z,17.90
2019-03-22T22:37:48.236Z,18.43
2019-03-22T22:39:49.149Z,18.50
2019-03-22T22:41:50.029Z,18.17
2019-03-22T22:43:50.881Z,19.50
2019-03-22T22:45:51.732Z,17.43
2019-03-22T22:47:52.578Z,17.40
2019-03-22T22:49:53.437Z,18.30
2019-03-22T22:51:54.267Z,18.37
2019-03-22T22:53:55.098Z,19.47
2019-03-22T22:55:55.953Z,19.20
2019-03-22T22:57:57.823Z,18.57
2019-03-22T22:59:58.669Z,20.07
2019-03-22T23:01:59.625Z,18.50
2019-03-22T23:04:00.575Z,18.87
2019-03-22T23:06:09.114Z,17.30
2019-03-22T23:08:04.194Z,18.50
2019-03-22T23:10:05.023Z,16.93
2019-03-22T23:12:05.984Z,15.90
2019-03-22T23:14:06.849Z,17.57
2019-03-22T23:16:07.705Z,19.30
2019-03-22T23:18:08.538Z,18.63
2019-03-22T23:20:09.391Z,18.43
2019-03-22T23:22:10.585Z,19.10
2019-03-22T23:24:11.448Z,19.30
2019-03-22T23:26:12.285Z,18.17
2019-03-22T23:28:13.116Z,17.63
2019-03-22T23:30:13.969Z,18.73
2019-03-22T23:32:14.797Z,20.10
2019-03-22T23:34:15.749Z,19.90
2019-03-22T23:36:20.381Z,19.03
2019-03-22T23:38:19.633Z,19.83
2019-03-22T23:40:20.500Z,20.73
2019-03-22T23:42:21.321Z,19.77
2019-03-22T23:44:22.152Z,19.97
2019-03-22T23:46:23.008Z,19.73
2019-03-22T23:48:24.193Z,21.23
2019-03-22T23:50:25.057Z,20.33
2019-03-22T23:52:26.317Z,20.00
2019-03-22T23:54:27.229Z,20.17
2019-03-22T23:56:28.048Z,21.33
2019-03-22T23:58:28.912Z,21.40
